Karina G — V2CH2 — position and weather

sailwx.info

Track history (hours):
 
Tides and Currents Weather Stations Pressure Air Temp Water Temp Dewpoint Dewpoint Depression Visibility Wind Speed Wind Dir Waves Ship Positions

Karina G

Last reported at 2017-Nov-17 17:30 UTC. Time now 2017-Nov-17 17:55 UTC.
Position N 43°23' E 007°22'.

Length 88 m; draft 5.6 m.

Type: Cargo ship. MMSI: 305555000.

Date/timePositionNaut miles runAvg speedWind from/ knotsBaromVisibWave heightAir tempDewpointWater temp
2017-Nov-17 17:30N 43°23' E 007°22'5 9.7
2017-Nov-17 17:00N 43°26' E 007°27'54 9.5
2017-Nov-17 11:21N 44°01' E 008°23'310.2
2017-Nov-17 11:00N 44°04' E 008°26'510.1
2017-Nov-17 10:30N 44°07' E 008°31'5 9.9
2017-Nov-17 10:00N 44°10' E 008°37'5 9.9
2017-Nov-17 09:30N 44°14' E 008°42'510.1
2017-Nov-17 09:00N 44°17' E 008°47'510.0
2017-Nov-17 08:30N 44°20' E 008°52'4 7.7
2017-Nov-17 08:00N 44°24' E 008°53'0 0.5
2017-Nov-17 07:29N 44°24' E 008°52'0 0.0
2017-Nov-17 06:59N 44°24' E 008°52'0 0.0
2017-Nov-17 06:29N 44°24' E 008°52'0 0.0
2017-Nov-17 05:59N 44°24' E 008°52'0 0.0
2017-Nov-17 05:29N 44°24' E 008°52'0 0.0
2017-Nov-17 04:59N 44°24' E 008°52'0 0.0
2017-Nov-17 04:29N 44°24' E 008°52'0 0.0
2017-Nov-17 03:59N 44°24' E 008°52'0 0.0
2017-Nov-17 03:26N 44°24' E 008°52'0 0.0
2017-Nov-17 02:59N 44°24' E 008°52'0 0.0
2017-Nov-17 02:29N 44°24' E 008°52'0 0.0
2017-Nov-17 01:59N 44°24' E 008°52'0 0.0
2017-Nov-17 01:23N 44°24' E 008°52'0 0.0
2017-Nov-17 00:56N 44°24' E 008°52'0 0.0
2017-Nov-17 00:29N 44°24' E 008°52'0 0.0
2017-Nov-16 23:59N 44°24' E 008°52'0 0.0
2017-Nov-16 23:23N 44°24' E 008°52'0 0.0
2017-Nov-16 22:53N 44°24' E 008°52'0 0.0
2017-Nov-16 22:26N 44°24' E 008°52'0 0.0
2017-Nov-16 21:59N 44°24' E 008°52'0 0.0
2017-Nov-16 21:29N 44°24' E 008°52'0 0.0
2017-Nov-16 20:56N 44°24' E 008°52'0 0.0
2017-Nov-16 20:26N 44°24' E 008°52'0 0.0
2017-Nov-16 19:56N 44°24' E 008°52'0 0.0
2017-Nov-16 19:29N 44°24' E 008°52'0 0.0
2017-Nov-16 18:56N 44°24' E 008°52'0 0.0
2017-Nov-16 18:29N 44°24' E 008°52'0 0.0
2017-Nov-16 17:59N 44°24' E 008°52'0 0.0
2017-Nov-16 17:29N 44°24' E 008°52'0 0.0
2017-Nov-16 16:59N 44°24' E 008°52'0 0.0
2017-Nov-16 16:29N 44°24' E 008°52'0 0.0
2017-Nov-16 15:59N 44°24' E 008°52'0 0.0
2017-Nov-16 15:29N 44°24' E 008°52'0 0.0
2017-Nov-16 14:59N 44°24' E 008°52'0 0.0
2017-Nov-16 14:29N 44°24' E 008°52'0 0.0
2017-Nov-16 13:59N 44°24' E 008°52'0 0.0
2017-Nov-16 13:29N 44°24' E 008°52'0 0.0
2017-Nov-16 12:59N 44°24' E 008°52'0 0.0
2017-Nov-16 12:29N 44°24' E 008°52'0 0.0
2017-Nov-16 11:59N 44°24' E 008°52'0 0.0
2017-Nov-16 11:29N 44°24' E 008°52'0 0.0
2017-Nov-16 10:59N 44°24' E 008°52'0 0.0
2017-Nov-16 10:29N 44°24' E 008°52'0 0.0
2017-Nov-16 09:59N 44°24' E 008°52'0 0.0
2017-Nov-16 09:29N 44°24' E 008°52'0 0.0
2017-Nov-16 08:59N 44°24' E 008°52'0 0.0
2017-Nov-16 08:29N 44°24' E 008°52'0 0.0
2017-Nov-16 07:59N 44°24' E 008°52'0 0.0
2017-Nov-16 07:23N 44°24' E 008°52'0 0.0
2017-Nov-16 06:59N 44°24' E 008°52'0 0.0
2017-Nov-16 06:23N 44°24' E 008°52'0 0.0
2017-Nov-16 05:59N 44°24' E 008°52'0 0.0
2017-Nov-16 05:29N 44°24' E 008°52'0 0.0
2017-Nov-16 04:56N 44°24' E 008°52'0 0.0
2017-Nov-16 04:29N 44°24' E 008°52'0 0.0
2017-Nov-16 03:59N 44°24' E 008°52'0 0.0
2017-Nov-16 03:29N 44°24' E 008°52'0 0.0
2017-Nov-16 02:59N 44°24' E 008°52'0 0.0
2017-Nov-16 02:29N 44°24' E 008°52'0 0.0
2017-Nov-16 01:59N 44°24' E 008°52'0 0.0
2017-Nov-16 01:29N 44°24' E 008°52'0 0.0
2017-Nov-16 00:59N 44°24' E 008°52'0 0.0
2017-Nov-16 00:29N 44°24' E 008°52'0 0.0
2017-Nov-15 23:59N 44°24' E 008°52'0 0.0
2017-Nov-15 23:29N 44°24' E 008°52'0 0.0
2017-Nov-15 22:59N 44°24' E 008°52'0 0.0
2017-Nov-15 22:29N 44°24' E 008°52'0 0.0
2017-Nov-15 21:59N 44°24' E 008°52'0 0.0
2017-Nov-15 21:29N 44°24' E 008°52'0 0.0
2017-Nov-15 20:53N 44°24' E 008°52'0 0.0
2017-Nov-15 20:29N 44°24' E 008°52'0 0.0
2017-Nov-15 19:59N 44°24' E 008°52'0 0.0
2017-Nov-15 19:29N 44°24' E 008°52'0 0.0
2017-Nov-15 18:59N 44°24' E 008°52'0 0.0
2017-Nov-15 18:29N 44°24' E 008°52'0 0.0
2017-Nov-15 17:59N 44°24' E 008°52'0 0.0
2017-Nov-15 17:23N 44°24' E 008°52'0 0.0
2017-Nov-15 16:59N 44°24' E 008°52'0 0.0
2017-Nov-15 16:29N 44°24' E 008°52'0 0.0
2017-Nov-15 15:56N 44°24' E 008°52'0 0.0
2017-Nov-15 15:29N 44°24' E 008°52'0 0.0
2017-Nov-15 14:59N 44°24' E 008°52'0 0.0
2017-Nov-15 14:29N 44°24' E 008°52'0 0.0
2017-Nov-15 13:59N 44°24' E 008°52'0 0.0
2017-Nov-15 13:29N 44°24' E 008°52'0 0.0
2017-Nov-15 12:59N 44°24' E 008°52'0 0.0
2017-Nov-15 12:29N 44°24' E 008°52'0 0.0
2017-Nov-15 11:59N 44°24' E 008°52'0 0.0
2017-Nov-15 11:29N 44°24' E 008°52'0 0.0
2017-Nov-15 10:59N 44°24' E 008°52'0 0.0
2017-Nov-15 10:29N 44°24' E 008°52'0 0.0
2017-Nov-15 09:59N 44°24' E 008°52'0 0.0
2017-Nov-15 09:29N 44°24' E 008°52'0 0.0
2017-Nov-15 08:59N 44°24' E 008°52'0 0.0
2017-Nov-15 08:29N 44°24' E 008°52'0 0.0
2017-Nov-15 07:59N 44°24' E 008°52'0 0.0
2017-Nov-15 07:29N 44°24' E 008°52'0 0.0
2017-Nov-15 06:59N 44°24' E 008°52'0 0.0
2017-Nov-15 06:29N 44°24' E 008°52'0 0.0
2017-Nov-15 05:56N 44°24' E 008°52'0 0.0
2017-Nov-15 05:29N 44°24' E 008°52'0 0.0
2017-Nov-15 04:59N 44°24' E 008°52'0 0.0
2017-Nov-15 04:26N 44°24' E 008°52'0 0.0
2017-Nov-15 03:59N 44°24' E 008°52'0 0.0
2017-Nov-15 03:26N 44°24' E 008°52'0 0.0
2017-Nov-15 02:53N 44°24' E 008°52'0 0.0
2017-Nov-15 02:26N 44°24' E 008°52'0 0.0
2017-Nov-15 01:56N 44°24' E 008°52'0 0.0
2017-Nov-15 01:29N 44°24' E 008°52'0 0.0
2017-Nov-15 00:56N 44°24' E 008°52'0 0.0
2017-Nov-15 00:29N 44°24' E 008°52'0 0.0
2017-Nov-14 23:56N 44°24' E 008°52'0 0.0
2017-Nov-14 23:29N 44°24' E 008°52'0 0.0
2017-Nov-14 22:59N 44°24' E 008°52'0 0.0
2017-Nov-14 22:29N 44°24' E 008°52'0 0.0
2017-Nov-14 21:59N 44°24' E 008°52'0 0.0
2017-Nov-14 21:29N 44°24' E 008°52'0 0.0
2017-Nov-14 20:59N 44°24' E 008°52'0 0.0
2017-Nov-14 20:29N 44°24' E 008°52'0 0.0
2017-Nov-14 20:00N 44°24' E 008°52'2 3.3
2017-Nov-14 19:30N 44°24' E 008°54'4 8.5
2017-Nov-14 19:00N 44°21' E 008°58'4 7.5
2017-Nov-14 18:30N 44°20' E 008°53'4 8.7
2017-Nov-14 18:00N 44°19' E 008°47'4 8.2
2017-Nov-14 17:30N 44°19' E 008°42'4 7.7
2017-Nov-14 17:00N 44°19' E 008°36'4 7.8
2017-Nov-14 16:30N 44°19' E 008°31'1 1.5
2017-Nov-14 15:59N 44°19' E 008°30'0 0.0
2017-Nov-14 15:29N 44°19' E 008°30'0 0.0
2017-Nov-14 14:59N 44°19' E 008°30'0 0.0
2017-Nov-14 14:29N 44°19' E 008°30'0 0.0
2017-Nov-14 13:59N 44°19' E 008°30'0 0.0
2017-Nov-14 13:29N 44°19' E 008°30'0 0.0
2017-Nov-14 12:59N 44°19' E 008°30'0 0.0
2017-Nov-14 12:29N 44°19' E 008°30'0 0.0
2017-Nov-14 11:59N 44°19' E 008°30'0 0.0
2017-Nov-14 11:29N 44°19' E 008°30'0 0.0
2017-Nov-14 10:59N 44°19' E 008°30'0 0.0
2017-Nov-14 10:29N 44°19' E 008°30'0 0.0
2017-Nov-14 09:59N 44°19' E 008°30'0 0.0
2017-Nov-14 09:29N 44°19' E 008°30'0 0.0
2017-Nov-14 08:59N 44°19' E 008°30'0 0.0
2017-Nov-14 08:29N 44°19' E 008°30'0 0.0
2017-Nov-14 07:59N 44°19' E 008°30'0 0.0
2017-Nov-14 07:29N 44°19' E 008°30'0 0.0
2017-Nov-14 06:59N 44°19' E 008°30'0 0.0
2017-Nov-14 06:29N 44°19' E 008°30'0 0.0
2017-Nov-14 05:59N 44°19' E 008°30'0 0.0
2017-Nov-14 05:29N 44°19' E 008°30'0 0.0
2017-Nov-14 04:59N 44°19' E 008°30'0 0.0
2017-Nov-14 04:29N 44°19' E 008°30'0 0.0
2017-Nov-14 03:59N 44°19' E 008°30'0 0.0
2017-Nov-14 03:29N 44°19' E 008°30'0 0.0
2017-Nov-14 02:59N 44°19' E 008°30'0 0.0
2017-Nov-14 02:29N 44°19' E 008°30'0 0.0
2017-Nov-14 01:59N 44°19' E 008°30'0 0.0
2017-Nov-14 01:29N 44°19' E 008°30'0 0.0
2017-Nov-14 00:59N 44°19' E 008°30'0 0.0
2017-Nov-14 00:29N 44°19' E 008°30'0 0.0
2017-Nov-13 23:59N 44°19' E 008°30'0 0.0
2017-Nov-13 23:29N 44°19' E 008°30'0 0.0
2017-Nov-13 22:59N 44°19' E 008°30'0 0.0
2017-Nov-13 22:29N 44°19' E 008°30'0 0.0
2017-Nov-13 21:59N 44°19' E 008°30'22 1.1
2017-Nov-13 02:00N 43°58' E 008°20'49 6.0
2017-Nov-12 17:54N 43°27' E 007°28'3 6.4
2017-Nov-12 17:30N 43°26' E 007°25'5 7.2
2017-Nov-12 16:50N 43°23' E 007°19'3 8.0
2017-Nov-12 16:30N 43°22' E 007°16'4 8.0
2017-Nov-12 16:00N 43°19' E 007°12'4 7.8
2017-Nov-12 15:30N 43°17' E 007°07'4 7.7
2017-Nov-12 15:00N 43°15' E 007°03'472 9.2
2017-Nov-10 11:39N 37°45' W 000°20'210.3
2017-Nov-10 11:30N 37°44' W 000°21'5 9.8
2017-Nov-10 11:00N 37°40' W 000°25'5 9.4
2017-Nov-10 10:30N 37°36' W 000°28'5 9.3
2017-Nov-10 10:00N 37°32' W 000°32'5 9.5
2017-Nov-10 09:30N 37°29' W 000°36'5 9.5
2017-Nov-10 09:00N 37°26' W 000°41'5 9.3
2017-Nov-10 08:30N 37°23' W 000°45'7 9.2
2017-Nov-10 07:47N 37°18' W 000°51'3 9.0
2017-Nov-10 07:30N 37°17' W 000°54'5 9.1
2017-Nov-10 06:59N 37°14' W 000°59'  
Track history (hours):
 
Tides and Currents Weather Stations Pressure Air Temp Water Temp Dewpoint Dewpoint Depression Visibility Wind Speed Wind Dir Waves Ship Positions

Karina G

Last reported at 2017-Nov-17 17:30 UTC. Time now 2017-Nov-17 17:55 UTC.
Position N 43°23' E 007°22'.

Length 88 m; draft 5.6 m.

Type: Cargo ship. MMSI: 305555000.

Date/timePositionNaut miles runAvg speedWind from/ knotsBaromVisibWave heightAir tempDewpointWater temp
2017-Nov-17 17:30N 43°23' E 007°22'5 9.7
2017-Nov-17 17:00N 43°26' E 007°27'54 9.5
2017-Nov-17 11:21N 44°01' E 008°23'310.2
2017-Nov-17 11:00N 44°04' E 008°26'510.1
2017-Nov-17 10:30N 44°07' E 008°31'5 9.9
2017-Nov-17 10:00N 44°10' E 008°37'5 9.9
2017-Nov-17 09:30N 44°14' E 008°42'510.1
2017-Nov-17 09:00N 44°17' E 008°47'510.0
2017-Nov-17 08:30N 44°20' E 008°52'4 7.7
2017-Nov-17 08:00N 44°24' E 008°53'0 0.5
2017-Nov-17 07:29N 44°24' E 008°52'0 0.0
2017-Nov-17 06:59N 44°24' E 008°52'0 0.0
2017-Nov-17 06:29N 44°24' E 008°52'0 0.0
2017-Nov-17 05:59N 44°24' E 008°52'0 0.0
2017-Nov-17 05:29N 44°24' E 008°52'0 0.0
2017-Nov-17 04:59N 44°24' E 008°52'0 0.0
2017-Nov-17 04:29N 44°24' E 008°52'0 0.0
2017-Nov-17 03:59N 44°24' E 008°52'0 0.0
2017-Nov-17 03:26N 44°24' E 008°52'0 0.0
2017-Nov-17 02:59N 44°24' E 008°52'0 0.0
2017-Nov-17 02:29N 44°24' E 008°52'0 0.0
2017-Nov-17 01:59N 44°24' E 008°52'0 0.0
2017-Nov-17 01:23N 44°24' E 008°52'0 0.0
2017-Nov-17 00:56N 44°24' E 008°52'0 0.0
2017-Nov-17 00:29N 44°24' E 008°52'0 0.0
2017-Nov-16 23:59N 44°24' E 008°52'0 0.0
2017-Nov-16 23:23N 44°24' E 008°52'0 0.0
2017-Nov-16 22:53N 44°24' E 008°52'0 0.0
2017-Nov-16 22:26N 44°24' E 008°52'0 0.0
2017-Nov-16 21:59N 44°24' E 008°52'0 0.0
2017-Nov-16 21:29N 44°24' E 008°52'0 0.0
2017-Nov-16 20:56N 44°24' E 008°52'0 0.0
2017-Nov-16 20:26N 44°24' E 008°52'0 0.0
2017-Nov-16 19:56N 44°24' E 008°52'0 0.0
2017-Nov-16 19:29N 44°24' E 008°52'0 0.0
2017-Nov-16 18:56N 44°24' E 008°52'0 0.0
2017-Nov-16 18:29N 44°24' E 008°52'0 0.0
2017-Nov-16 17:59N 44°24' E 008°52'0 0.0
2017-Nov-16 17:29N 44°24' E 008°52'0 0.0
2017-Nov-16 16:59N 44°24' E 008°52'0 0.0
2017-Nov-16 16:29N 44°24' E 008°52'0 0.0
2017-Nov-16 15:59N 44°24' E 008°52'0 0.0
2017-Nov-16 15:29N 44°24' E 008°52'0 0.0
2017-Nov-16 14:59N 44°24' E 008°52'0 0.0
2017-Nov-16 14:29N 44°24' E 008°52'0 0.0
2017-Nov-16 13:59N 44°24' E 008°52'0 0.0
2017-Nov-16 13:29N 44°24' E 008°52'0 0.0
2017-Nov-16 12:59N 44°24' E 008°52'0 0.0
2017-Nov-16 12:29N 44°24' E 008°52'0 0.0
2017-Nov-16 11:59N 44°24' E 008°52'0 0.0
2017-Nov-16 11:29N 44°24' E 008°52'0 0.0
2017-Nov-16 10:59N 44°24' E 008°52'0 0.0
2017-Nov-16 10:29N 44°24' E 008°52'0 0.0
2017-Nov-16 09:59N 44°24' E 008°52'0 0.0
2017-Nov-16 09:29N 44°24' E 008°52'0 0.0
2017-Nov-16 08:59N 44°24' E 008°52'0 0.0
2017-Nov-16 08:29N 44°24' E 008°52'0 0.0
2017-Nov-16 07:59N 44°24' E 008°52'0 0.0
2017-Nov-16 07:23N 44°24' E 008°52'0 0.0
2017-Nov-16 06:59N 44°24' E 008°52'0 0.0
2017-Nov-16 06:23N 44°24' E 008°52'0 0.0
2017-Nov-16 05:59N 44°24' E 008°52'0 0.0
2017-Nov-16 05:29N 44°24' E 008°52'0 0.0
2017-Nov-16 04:56N 44°24' E 008°52'0 0.0
2017-Nov-16 04:29N 44°24' E 008°52'0 0.0
2017-Nov-16 03:59N 44°24' E 008°52'0 0.0
2017-Nov-16 03:29N 44°24' E 008°52'0 0.0
2017-Nov-16 02:59N 44°24' E 008°52'0 0.0
2017-Nov-16 02:29N 44°24' E 008°52'0 0.0
2017-Nov-16 01:59N 44°24' E 008°52'0 0.0
2017-Nov-16 01:29N 44°24' E 008°52'0 0.0
2017-Nov-16 00:59N 44°24' E 008°52'0 0.0
2017-Nov-16 00:29N 44°24' E 008°52'0 0.0
2017-Nov-15 23:59N 44°24' E 008°52'0 0.0
2017-Nov-15 23:29N 44°24' E 008°52'0 0.0
2017-Nov-15 22:59N 44°24' E 008°52'0 0.0
2017-Nov-15 22:29N 44°24' E 008°52'0 0.0
2017-Nov-15 21:59N 44°24' E 008°52'0 0.0
2017-Nov-15 21:29N 44°24' E 008°52'0 0.0
2017-Nov-15 20:53N 44°24' E 008°52'0 0.0
2017-Nov-15 20:29N 44°24' E 008°52'0 0.0
2017-Nov-15 19:59N 44°24' E 008°52'0 0.0
2017-Nov-15 19:29N 44°24' E 008°52'0 0.0
2017-Nov-15 18:59N 44°24' E 008°52'0 0.0
2017-Nov-15 18:29N 44°24' E 008°52'0 0.0
2017-Nov-15 17:59N 44°24' E 008°52'0 0.0
2017-Nov-15 17:23N 44°24' E 008°52'0 0.0
2017-Nov-15 16:59N 44°24' E 008°52'0 0.0
2017-Nov-15 16:29N 44°24' E 008°52'0 0.0
2017-Nov-15 15:56N 44°24' E 008°52'0 0.0
2017-Nov-15 15:29N 44°24' E 008°52'0 0.0
2017-Nov-15 14:59N 44°24' E 008°52'0 0.0
2017-Nov-15 14:29N 44°24' E 008°52'0 0.0
2017-Nov-15 13:59N 44°24' E 008°52'0 0.0
2017-Nov-15 13:29N 44°24' E 008°52'0 0.0
2017-Nov-15 12:59N 44°24' E 008°52'0 0.0
2017-Nov-15 12:29N 44°24' E 008°52'0 0.0
2017-Nov-15 11:59N 44°24' E 008°52'0 0.0
2017-Nov-15 11:29N 44°24' E 008°52'0 0.0
2017-Nov-15 10:59N 44°24' E 008°52'0 0.0
2017-Nov-15 10:29N 44°24' E 008°52'0 0.0
2017-Nov-15 09:59N 44°24' E 008°52'0 0.0
2017-Nov-15 09:29N 44°24' E 008°52'0 0.0
2017-Nov-15 08:59N 44°24' E 008°52'0 0.0
2017-Nov-15 08:29N 44°24' E 008°52'0 0.0
2017-Nov-15 07:59N 44°24' E 008°52'0 0.0
2017-Nov-15 07:29N 44°24' E 008°52'0 0.0
2017-Nov-15 06:59N 44°24' E 008°52'0 0.0
2017-Nov-15 06:29N 44°24' E 008°52'0 0.0
2017-Nov-15 05:56N 44°24' E 008°52'0 0.0
2017-Nov-15 05:29N 44°24' E 008°52'0 0.0
2017-Nov-15 04:59N 44°24' E 008°52'0 0.0
2017-Nov-15 04:26N 44°24' E 008°52'0 0.0
2017-Nov-15 03:59N 44°24' E 008°52'0 0.0
2017-Nov-15 03:26N 44°24' E 008°52'0 0.0
2017-Nov-15 02:53N 44°24' E 008°52'0 0.0
2017-Nov-15 02:26N 44°24' E 008°52'0 0.0
2017-Nov-15 01:56N 44°24' E 008°52'0 0.0
2017-Nov-15 01:29N 44°24' E 008°52'0 0.0
2017-Nov-15 00:56N 44°24' E 008°52'0 0.0
2017-Nov-15 00:29N 44°24' E 008°52'0 0.0
2017-Nov-14 23:56N 44°24' E 008°52'0 0.0
2017-Nov-14 23:29N 44°24' E 008°52'0 0.0
2017-Nov-14 22:59N 44°24' E 008°52'0 0.0
2017-Nov-14 22:29N 44°24' E 008°52'0 0.0
2017-Nov-14 21:59N 44°24' E 008°52'0 0.0
2017-Nov-14 21:29N 44°24' E 008°52'0 0.0
2017-Nov-14 20:59N 44°24' E 008°52'0 0.0
2017-Nov-14 20:29N 44°24' E 008°52'0 0.0
2017-Nov-14 20:00N 44°24' E 008°52'2 3.3
2017-Nov-14 19:30N 44°24' E 008°54'4 8.5
2017-Nov-14 19:00N 44°21' E 008°58'4 7.5
2017-Nov-14 18:30N 44°20' E 008°53'4 8.7
2017-Nov-14 18:00N 44°19' E 008°47'4 8.2
2017-Nov-14 17:30N 44°19' E 008°42'4 7.7
2017-Nov-14 17:00N 44°19' E 008°36'4 7.8
2017-Nov-14 16:30N 44°19' E 008°31'1 1.5
2017-Nov-14 15:59N 44°19' E 008°30'0 0.0
2017-Nov-14 15:29N 44°19' E 008°30'0 0.0
2017-Nov-14 14:59N 44°19' E 008°30'0 0.0
2017-Nov-14 14:29N 44°19' E 008°30'0 0.0
2017-Nov-14 13:59N 44°19' E 008°30'0 0.0
2017-Nov-14 13:29N 44°19' E 008°30'0 0.0
2017-Nov-14 12:59N 44°19' E 008°30'0 0.0
2017-Nov-14 12:29N 44°19' E 008°30'0 0.0
2017-Nov-14 11:59N 44°19' E 008°30'0 0.0
2017-Nov-14 11:29N 44°19' E 008°30'0 0.0
2017-Nov-14 10:59N 44°19' E 008°30'0 0.0
2017-Nov-14 10:29N 44°19' E 008°30'0 0.0
2017-Nov-14 09:59N 44°19' E 008°30'0 0.0
2017-Nov-14 09:29N 44°19' E 008°30'0 0.0
2017-Nov-14 08:59N 44°19' E 008°30'0 0.0
2017-Nov-14 08:29N 44°19' E 008°30'0 0.0
2017-Nov-14 07:59N 44°19' E 008°30'0 0.0
2017-Nov-14 07:29N 44°19' E 008°30'0 0.0
2017-Nov-14 06:59N 44°19' E 008°30'0 0.0
2017-Nov-14 06:29N 44°19' E 008°30'0 0.0
2017-Nov-14 05:59N 44°19' E 008°30'0 0.0
2017-Nov-14 05:29N 44°19' E 008°30'0 0.0
2017-Nov-14 04:59N 44°19' E 008°30'0 0.0
2017-Nov-14 04:29N 44°19' E 008°30'0 0.0
2017-Nov-14 03:59N 44°19' E 008°30'0 0.0
2017-Nov-14 03:29N 44°19' E 008°30'0 0.0
2017-Nov-14 02:59N 44°19' E 008°30'0 0.0
2017-Nov-14 02:29N 44°19' E 008°30'0 0.0
2017-Nov-14 01:59N 44°19' E 008°30'0 0.0
2017-Nov-14 01:29N 44°19' E 008°30'0 0.0
2017-Nov-14 00:59N 44°19' E 008°30'0 0.0
2017-Nov-14 00:29N 44°19' E 008°30'0 0.0
2017-Nov-13 23:59N 44°19' E 008°30'0 0.0
2017-Nov-13 23:29N 44°19' E 008°30'0 0.0
2017-Nov-13 22:59N 44°19' E 008°30'0 0.0
2017-Nov-13 22:29N 44°19' E 008°30'0 0.0
2017-Nov-13 21:59N 44°19' E 008°30'22 1.1
2017-Nov-13 02:00N 43°58' E 008°20'49 6.0
2017-Nov-12 17:54N 43°27' E 007°28'3 6.4
2017-Nov-12 17:30N 43°26' E 007°25'5 7.2
2017-Nov-12 16:50N 43°23' E 007°19'3 8.0
2017-Nov-12 16:30N 43°22' E 007°16'4 8.0
2017-Nov-12 16:00N 43°19' E 007°12'4 7.8
2017-Nov-12 15:30N 43°17' E 007°07'4 7.7
2017-Nov-12 15:00N 43°15' E 007°03'472 9.2
2017-Nov-10 11:39N 37°45' W 000°20'210.3
2017-Nov-10 11:30N 37°44' W 000°21'5 9.8
2017-Nov-10 11:00N 37°40' W 000°25'5 9.4
2017-Nov-10 10:30N 37°36' W 000°28'5 9.3
2017-Nov-10 10:00N 37°32' W 000°32'5 9.5
2017-Nov-10 09:30N 37°29' W 000°36'5 9.5
2017-Nov-10 09:00N 37°26' W 000°41'5 9.3
2017-Nov-10 08:30N 37°23' W 000°45'7 9.2
2017-Nov-10 07:47N 37°18' W 000°51'3 9.0
2017-Nov-10 07:30N 37°17' W 000°54'5 9.1
2017-Nov-10 06:59N 37°14' W 000°59'  

Dump ship's entire track history